createdAt,value
2018-02-18T00:00:34.911Z,36.03
2018-02-18T00:03:02.926Z,37.67
2018-02-18T00:05:29.188Z,34.33
2018-02-18T00:07:55.463Z,30.50
2018-02-18T00:10:21.744Z,25.57
2018-02-18T00:12:48.001Z,26.23
2018-02-18T00:15:15.006Z,31.30
2018-02-18T00:17:41.291Z,23.83
2018-02-18T00:20:08.280Z,26.93
2018-02-18T00:22:34.681Z,20.93
2018-02-18T00:25:01.897Z,30.17
2018-02-18T00:27:28.950Z,34.97
2018-02-18T00:29:55.262Z,26.83
2018-02-18T00:32:21.505Z,25.97
2018-02-18T00:34:48.665Z,26.63
2018-02-18T00:37:15.694Z,28.90
2018-02-18T00:39:41.977Z,24.33
2018-02-18T00:42:08.273Z,42.30
2018-02-18T00:44:35.305Z,30.10
2018-02-18T00:47:01.557Z,28.20
2018-02-18T00:49:28.535Z,30.13
2018-02-18T00:51:54.769Z,26.13
2018-02-18T00:54:21.075Z,28.07
2018-02-18T00:56:47.349Z,45.60
2018-02-18T00:59:13.628Z,25.60
2018-02-18T01:01:40.638Z,23.37
2018-02-18T01:04:06.896Z,33.53
2018-02-18T01:06:33.904Z,21.30
2018-02-18T01:09:00.142Z,28.40
2018-02-18T01:11:26.399Z,28.13
2018-02-18T01:13:53.400Z,35.97
2018-02-18T01:16:19.684Z,38.30
2018-02-18T01:18:46.694Z,22.70
2018-02-18T01:21:12.986Z,22.53
2018-02-18T01:23:39.245Z,36.43
2018-02-18T01:26:05.525Z,32.57
2018-02-18T01:28:32.577Z,33.60
2018-02-18T01:30:59.575Z,30.57
2018-02-18T01:33:25.825Z,26.20
2018-02-18T01:35:52.095Z,27.93
2018-02-18T01:38:18.382Z,32.03
2018-02-18T01:40:44.650Z,27.23
2018-02-18T01:43:10.939Z,25.60
2018-02-18T01:45:37.211Z,37.57
2018-02-18T01:48:03.462Z,28.83
2018-02-18T01:50:35.666Z,35.80
2018-02-18T01:53:01.895Z,23.23
2018-02-18T01:55:28.137Z,32.43
2018-02-18T01:57:55.114Z,32.80
2018-02-18T02:00:21.374Z,37.10
2018-02-18T02:02:47.629Z,23.70
2018-02-18T02:05:14.648Z,28.53
2018-02-18T02:07:40.923Z,28.70
2018-02-18T02:10:07.923Z,30.73
2018-02-18T02:12:34.159Z,25.43
2018-02-18T02:15:00.401Z,30.07
2018-02-18T02:17:26.635Z,29.60
2018-02-18T02:19:52.883Z,37.23
2018-02-18T02:22:19.864Z,29.50
2018-02-18T02:24:46.140Z,37.17
2018-02-18T02:27:12.376Z,39.73
2018-02-18T02:29:38.623Z,39.00
2018-02-18T02:32:05.652Z,36.77
2018-02-18T02:34:31.897Z,36.17
2018-02-18T02:36:58.188Z,29.97
2018-02-18T02:39:24.459Z,31.77
2018-02-18T02:41:51.486Z,38.50
2018-02-18T02:44:17.744Z,39.43
2018-02-18T02:46:44.748Z,48.77
2018-02-18T02:49:10.998Z,39.90
2018-02-18T02:51:37.249Z,47.47
2018-02-18T02:54:03.513Z,39.37
2018-02-18T02:56:29.770Z,54.37
2018-02-18T02:58:56.007Z,50.13
2018-02-18T03:01:22.229Z,50.47
2018-02-18T03:03:48.468Z,42.13
2018-02-18T03:06:14.790Z,52.50
2018-02-18T03:08:41.047Z,52.53
2018-02-18T03:11:08.035Z,51.40
2018-02-18T03:13:34.258Z,62.33
2018-02-18T03:16:00.519Z,55.03
2018-02-18T03:18:26.779Z,47.43
2018-02-18T03:20:53.768Z,50.43
2018-02-18T03:23:20.045Z,42.87
2018-02-18T03:25:46.292Z,48.00
2018-02-18T03:28:13.304Z,50.33
2018-02-18T03:30:39.537Z,50.03
2018-02-18T03:33:05.816Z,55.33
2018-02-18T03:35:32.128Z,55.07
2018-02-18T03:37:59.134Z,62.13
2018-02-18T03:40:25.400Z,50.30
2018-02-18T03:42:52.390Z,53.17
2018-02-18T03:45:18.638Z,47.97
2018-02-18T03:47:44.947Z,52.00
2018-02-18T03:50:11.213Z,53.23
2018-02-18T03:52:37.441Z,55.50
2018-02-18T03:55:03.727Z,51.03
2018-02-18T03:57:29.998Z,65.13
2018-02-18T03:59:56.292Z,55.43
2018-02-18T04:02:22.557Z,49.63
2018-02-18T04:04:48.869Z,56.73
2018-02-18T04:07:15.135Z,58.10
2018-02-18T04:09:41.389Z,60.10
2018-02-18T04:12:08.401Z,59.47
2018-02-18T04:14:34.647Z,55.30
2018-02-18T04:17:01.659Z,57.67
2018-02-18T04:19:27.915Z,53.60
2018-02-18T04:21:54.214Z,59.87
2018-02-18T04:24:20.459Z,63.73
2018-02-18T04:26:46.762Z,53.87
2018-02-18T04:29:13.036Z,52.93
2018-02-18T04:31:39.304Z,61.97
2018-02-18T04:34:05.563Z,44.07
2018-02-18T04:36:31.820Z,51.10
2018-02-18T04:38:58.118Z,54.47
2018-02-18T04:41:24.372Z,65.73
2018-02-18T04:43:50.619Z,52.70
2018-02-18T04:46:18.061Z,65.50
2018-02-18T04:48:44.333Z,61.37
2018-02-18T04:51:10.586Z,52.53
2018-02-18T04:53:36.832Z,52.87
2018-02-18T04:56:03.064Z,52.40
2018-02-18T04:58:29.488Z,46.50
2018-02-18T05:00:55.752Z,48.50
2018-02-18T05:03:21.975Z,52.33
2018-02-18T05:05:48.208Z,40.70
2018-02-18T05:08:15.227Z,46.87
2018-02-18T05:10:41.503Z,49.73
2018-02-18T05:13:08.491Z,54.40
2018-02-18T05:15:34.747Z,41.20
2018-02-18T05:18:01.017Z,40.13
2018-02-18T05:20:28.036Z,52.60
2018-02-18T05:22:54.305Z,34.40
2018-02-18T05:25:20.546Z,49.17
2018-02-18T05:27:46.826Z,33.13
2018-02-18T05:30:13.049Z,36.17
2018-02-18T05:32:39.278Z,36.33
2018-02-18T05:35:05.523Z,38.33
2018-02-18T05:37:31.776Z,38.20
2018-02-18T05:39:58.022Z,42.50
2018-02-18T05:42:24.270Z,41.33
2018-02-18T05:44:50.550Z,51.60
2018-02-18T05:47:17.519Z,39.93
2018-02-18T05:49:43.776Z,37.83
2018-02-18T05:52:11.825Z,38.63
2018-02-18T05:54:38.077Z,36.17
2018-02-18T05:57:04.337Z,25.37
2018-02-18T05:59:30.573Z,31.47
2018-02-18T06:01:56.829Z,31.80
2018-02-18T06:04:23.108Z,28.00
2018-02-18T06:06:49.350Z,41.50
2018-02-18T06:09:15.638Z,33.80
2018-02-18T06:11:41.843Z,32.57
2018-02-18T06:14:08.129Z,34.67
2018-02-18T06:16:34.387Z,37.43
2018-02-18T06:19:00.627Z,55.97
2018-02-18T06:21:27.601Z,44.50
2018-02-18T06:23:53.826Z,39.33
2018-02-18T06:26:20.059Z,44.43
2018-02-18T06:28:46.305Z,42.87
2018-02-18T06:31:12.532Z,44.10
2018-02-18T06:33:38.807Z,43.83
2018-02-18T06:36:05.820Z,42.37
2018-02-18T06:38:32.104Z,49.23
2018-02-18T06:40:58.379Z,49.10
2018-02-18T06:43:24.668Z,45.90
2018-02-18T06:45:50.936Z,36.63
2018-02-18T06:48:17.202Z,50.70
2018-02-18T06:50:51.193Z,42.53
2018-02-18T06:53:17.425Z,49.97
2018-02-18T06:55:43.652Z,40.23
2018-02-18T06:58:09.944Z,41.00
2018-02-18T07:00:36.197Z,40.77
2018-02-18T07:03:02.557Z,29.60
2018-02-18T07:05:28.828Z,29.07
2018-02-18T07:07:55.049Z,30.63
2018-02-18T07:10:21.342Z,31.73
2018-02-18T07:12:47.604Z,33.30
2018-02-18T07:15:13.855Z,40.10
2018-02-18T07:17:40.183Z,36.50
2018-02-18T07:20:06.385Z,39.13
2018-02-18T07:22:33.410Z,34.77
2018-02-18T07:24:59.674Z,35.40
2018-02-18T07:27:25.962Z,38.30
2018-02-18T07:29:52.208Z,33.60
2018-02-18T07:32:19.219Z,35.53
2018-02-18T07:34:45.474Z,35.93
2018-02-18T07:37:11.820Z,36.40
2018-02-18T07:39:38.110Z,32.67
2018-02-18T07:42:04.454Z,34.10
2018-02-18T07:44:30.715Z,27.47
2018-02-18T07:46:56.997Z,30.40
2018-02-18T07:49:23.260Z,27.47
2018-02-18T07:51:49.529Z,22.63
2018-02-18T07:54:15.802Z,35.67
2018-02-18T07:56:42.053Z,29.80
2018-02-18T07:59:08.303Z,33.90
2018-02-18T08:01:34.529Z,27.13
2018-02-18T08:04:01.537Z,33.07
2018-02-18T08:06:27.831Z,21.57
2018-02-18T08:08:54.101Z,24.13
2018-02-18T08:11:20.335Z,30.53
2018-02-18T08:13:46.577Z,22.20
2018-02-18T08:16:13.565Z,21.90
2018-02-18T08:18:39.876Z,23.60
2018-02-18T08:21:06.129Z,22.80
2018-02-18T08:23:32.370Z,21.97
2018-02-18T08:25:58.692Z,25.30
2018-02-18T08:28:24.990Z,24.60
2018-02-18T08:30:52.038Z,29.03
2018-02-18T08:33:19.064Z,22.23
2018-02-18T08:35:45.387Z,21.83
2018-02-18T08:38:11.661Z,24.43
2018-02-18T08:40:37.908Z,23.67
2018-02-18T08:43:04.167Z,16.00
2018-02-18T08:45:30.433Z,17.33
2018-02-18T08:47:57.425Z,20.50
2018-02-18T08:50:23.743Z,19.27
2018-02-18T08:52:49.967Z,14.20
2018-02-18T08:55:16.311Z,16.50
2018-02-18T08:57:42.593Z,20.53
2018-02-18T09:00:09.629Z,18.40
2018-02-18T09:02:35.919Z,16.43
2018-02-18T09:05:02.236Z,20.03
2018-02-18T09:07:28.551Z,16.23
2018-02-18T09:09:54.802Z,23.87
2018-02-18T09:12:21.088Z,16.10
2018-02-18T09:14:48.130Z,19.70
2018-02-18T09:17:15.168Z,15.80
2018-02-18T09:19:41.491Z,22.33
2018-02-18T09:22:07.746Z,13.73
2018-02-18T09:24:34.736Z,12.97
2018-02-18T09:27:01.737Z,18.43
2018-02-18T09:29:28.759Z,17.67
2018-02-18T09:31:55.001Z,18.50
2018-02-18T09:34:21.303Z,17.30
2018-02-18T09:36:47.569Z,16.90
2018-02-18T09:39:14.009Z,17.23
2018-02-18T09:41:41.013Z,14.27
2018-02-18T09:44:07.345Z,22.30
2018-02-18T09:46:33.640Z,15.43
2018-02-18T09:48:59.927Z,14.20
2018-02-18T09:51:26.269Z,13.67
2018-02-18T09:53:53.321Z,18.07
2018-02-18T09:56:19.592Z,18.33
2018-02-18T09:58:45.872Z,15.93
2018-02-18T10:01:12.128Z,17.80
2018-02-18T10:03:38.408Z,14.67
2018-02-18T10:06:04.650Z,10.63
2018-02-18T10:08:30.898Z,17.07
2018-02-18T10:10:57.188Z,12.47
2018-02-18T10:13:23.494Z,12.47
2018-02-18T10:15:49.768Z,11.77
2018-02-18T10:18:16.022Z,16.00
2018-02-18T10:20:43.060Z,20.57
2018-02-18T10:23:09.362Z,14.10
2018-02-18T10:25:35.619Z,17.30
2018-02-18T10:28:01.857Z,20.07
2018-02-18T10:30:28.135Z,14.30
2018-02-18T10:32:54.384Z,15.57
2018-02-18T10:35:20.673Z,14.57
2018-02-18T10:37:46.949Z,15.93
2018-02-18T10:40:13.205Z,19.80
2018-02-18T10:42:39.461Z,17.80
2018-02-18T10:45:05.751Z,18.00
2018-02-18T10:47:32.059Z,15.60
2018-02-18T10:49:58.328Z,17.83
2018-02-18T10:52:24.614Z,14.77
2018-02-18T10:54:50.911Z,19.50
2018-02-18T10:57:17.248Z,11.90
2018-02-18T10:59:43.559Z,17.47
2018-02-18T11:02:10.611Z,13.13
2018-02-18T11:04:37.606Z,17.50
2018-02-18T11:07:03.970Z,20.87
2018-02-18T11:09:30.264Z,12.13
2018-02-18T11:11:56.523Z,14.63
2018-02-18T11:14:22.793Z,15.13
2018-02-18T11:16:49.086Z,15.80
2018-02-18T11:19:15.354Z,17.53
2018-02-18T11:21:41.608Z,14.57
2018-02-18T11:24:07.904Z,14.40
2018-02-18T11:26:34.922Z,11.30
2018-02-18T11:29:01.234Z,17.50
2018-02-18T11:31:27.560Z,16.23
2018-02-18T11:33:53.838Z,19.53
2018-02-18T11:36:20.836Z,15.20
2018-02-18T11:38:47.082Z,13.90
2018-02-18T11:41:13.332Z,15.97
2018-02-18T11:43:40.356Z,8.90
2018-02-18T11:46:07.170Z,11.00
2018-02-18T11:48:33.795Z,13.97
2018-02-18T11:51:00.056Z,7.40
2018-02-18T11:53:26.370Z,9.07
2018-02-18T11:55:52.614Z,13.67
2018-02-18T11:58:18.911Z,9.57
2018-02-18T12:00:45.161Z,7.90
2018-02-18T12:03:11.410Z,12.60
2018-02-18T12:05:37.739Z,8.20
2018-02-18T12:08:04.017Z,13.90
2018-02-18T12:10:31.045Z,7.47
2018-02-18T12:12:57.317Z,7.37
2018-02-18T12:15:23.617Z,18.63
2018-02-18T12:17:49.865Z,10.20
2018-02-18T12:20:16.135Z,8.70
2018-02-18T12:22:42.429Z,8.87
2018-02-18T12:25:08.702Z,14.00
2018-02-18T12:27:34.996Z,9.50
2018-02-18T12:30:08.333Z,10.43
2018-02-18T12:32:34.621Z,9.67
2018-02-18T12:35:00.951Z,11.40
2018-02-18T12:37:27.213Z,8.37
2018-02-18T12:40:14.637Z,10.93
2018-02-18T12:42:40.900Z,16.47
2018-02-18T12:45:07.922Z,12.30
2018-02-18T12:47:34.203Z,11.43
2018-02-18T12:50:00.566Z,12.70
2018-02-18T12:52:26.832Z,6.77
2018-02-18T12:54:53.105Z,10.03
2018-02-18T12:57:19.368Z,9.47
2018-02-18T12:59:45.643Z,8.67
2018-02-18T13:02:12.626Z,16.40
2018-02-18T13:04:38.921Z,9.73
2018-02-18T13:07:05.958Z,7.10
2018-02-18T13:09:32.210Z,10.37
2018-02-18T13:11:58.482Z,7.43
2018-02-18T13:14:24.908Z,9.77
2018-02-18T13:16:51.149Z,11.17
2018-02-18T13:19:17.461Z,10.73
2018-02-18T13:21:43.831Z,10.97
2018-02-18T13:24:10.162Z,9.00
2018-02-18T13:26:36.426Z,10.87
2018-02-18T13:29:02.708Z,9.20
2018-02-18T13:31:28.967Z,7.40
2018-02-18T13:33:55.947Z,10.77
2018-02-18T13:36:22.227Z,10.80
2018-02-18T13:38:48.481Z,10.33
2018-02-18T13:41:14.752Z,13.93
2018-02-18T13:43:41.768Z,11.10
2018-02-18T13:46:08.014Z,9.77
2018-02-18T13:48:34.253Z,11.40
2018-02-18T13:51:00.540Z,14.70
2018-02-18T13:53:27.558Z,9.33
2018-02-18T13:55:53.825Z,6.43
2018-02-18T13:58:20.079Z,7.70
2018-02-18T14:00:46.305Z,8.73
2018-02-18T14:03:12.557Z,13.63
2018-02-18T14:05:38.835Z,10.33
2018-02-18T14:08:05.833Z,8.97
2018-02-18T14:10:32.063Z,9.97
2018-02-18T14:12:58.334Z,6.10
2018-02-18T14:15:25.382Z,7.30
2018-02-18T14:17:52.395Z,7.17
2018-02-18T14:20:18.673Z,8.07
2018-02-18T14:22:52.609Z,11.67
2018-02-18T14:25:18.865Z,14.80
2018-02-18T14:27:45.561Z,7.03
2018-02-18T14:30:11.827Z,7.80
2018-02-18T14:32:38.065Z,7.97
2018-02-18T14:35:04.379Z,7.50
2018-02-18T14:37:30.780Z,10.13
2018-02-18T14:39:57.042Z,11.13
2018-02-18T14:45:56.062Z,8.67
2018-02-18T14:51:54.015Z,7.87
2018-02-18T14:57:34.071Z,8.40
2018-02-18T15:00:01.068Z,9.57
2018-02-18T15:02:27.385Z,9.60
2018-02-18T15:04:53.655Z,10.10
2018-02-18T15:07:20.008Z,7.50
2018-02-18T15:09:46.263Z,8.60
2018-02-18T15:12:13.649Z,9.03
2018-02-18T15:14:39.947Z,7.07
2018-02-18T15:17:06.228Z,8.37
2018-02-18T15:19:32.535Z,6.20
2018-02-18T15:21:59.024Z,13.50
2018-02-18T15:24:26.034Z,8.90
2018-02-18T15:26:52.340Z,6.50
2018-02-18T15:29:18.623Z,8.33
2018-02-18T15:31:44.962Z,10.47
2018-02-18T15:34:11.287Z,7.97
2018-02-18T15:36:37.631Z,8.00
2018-02-18T15:39:04.735Z,6.10
2018-02-18T15:41:30.982Z,9.73
2018-02-18T15:43:57.997Z,7.60
2018-02-18T15:46:32.212Z,6.17
2018-02-18T15:48:58.544Z,8.80
2018-02-18T15:51:24.892Z,9.90
2018-02-18T15:53:51.202Z,6.87
2018-02-18T15:56:17.568Z,6.67
2018-02-18T15:58:43.878Z,10.00
2018-02-18T16:01:10.191Z,8.37
2018-02-18T16:03:36.446Z,13.70
2018-02-18T16:06:03.480Z,8.97
2018-02-18T16:08:29.774Z,10.97
2018-02-18T16:10:56.026Z,6.70
2018-02-18T16:13:22.345Z,8.03
2018-02-18T16:15:48.623Z,5.77
2018-02-18T16:18:15.711Z,5.43
2018-02-18T16:20:42.765Z,7.47
2018-02-18T16:23:09.849Z,6.53
2018-02-18T16:25:36.107Z,10.00
2018-02-18T16:28:02.406Z,9.20
2018-02-18T16:30:28.673Z,12.77
2018-02-18T16:32:54.956Z,11.73
2018-02-18T16:35:21.250Z,8.97
2018-02-18T16:37:49.332Z,10.77
2018-02-18T16:40:16.335Z,6.30
2018-02-18T16:42:42.626Z,8.20
2018-02-18T16:45:08.897Z,7.80
2018-02-18T16:47:35.376Z,15.17
2018-02-18T16:50:01.747Z,8.47
2018-02-18T16:52:28.001Z,10.30
2018-02-18T16:54:54.368Z,8.83
2018-02-18T16:57:21.379Z,8.57
2018-02-18T16:59:47.721Z,8.90
2018-02-18T17:02:14.743Z,7.37
2018-02-18T17:04:41.065Z,11.80
2018-02-18T17:07:07.319Z,13.53
2018-02-18T17:09:33.617Z,11.53
2018-02-18T17:11:59.897Z,11.23
2018-02-18T17:14:27.150Z,6.37
2018-02-18T17:16:54.450Z,7.00
2018-02-18T17:19:20.700Z,12.13
2018-02-18T17:21:48.093Z,7.13
2018-02-18T17:24:15.143Z,10.23
2018-02-18T17:26:42.164Z,9.20
2018-02-18T17:29:08.428Z,9.77
2018-02-18T17:31:34.817Z,10.80
2018-02-18T17:34:01.102Z,9.63
2018-02-18T17:36:27.348Z,10.20
2018-02-18T17:38:53.643Z,12.33
2018-02-18T17:41:27.682Z,16.07
2018-02-18T17:43:53.967Z,14.83
2018-02-18T17:46:20.248Z,12.30
2018-02-18T17:48:46.591Z,15.17
2018-02-18T17:51:12.897Z,14.03
2018-02-18T17:53:39.191Z,17.00
2018-02-18T17:56:05.486Z,14.07
2018-02-18T17:58:38.786Z,10.73
2018-02-18T18:01:05.081Z,12.03
2018-02-18T18:03:31.390Z,15.73
2018-02-18T18:05:57.688Z,10.47
2018-02-18T18:08:24.744Z,12.77
2018-02-18T18:10:51.051Z,14.33
2018-02-18T18:13:17.312Z,17.30
2018-02-18T18:15:43.659Z,15.10
2018-02-18T18:18:09.961Z,19.87
2018-02-18T18:20:36.373Z,21.93
2018-02-18T18:23:02.690Z,18.47
2018-02-18T18:25:29.081Z,17.50
2018-02-18T18:27:55.363Z,19.30
2018-02-18T18:30:21.650Z,20.03
2018-02-18T18:32:47.992Z,14.27
2018-02-18T18:35:15.141Z,15.40
2018-02-18T18:37:42.165Z,18.80
2018-02-18T18:40:08.471Z,14.43
2018-02-18T18:42:35.543Z,15.87
2018-02-18T18:45:01.901Z,11.40
2018-02-18T18:47:28.968Z,11.50
2018-02-18T18:49:55.307Z,15.50
2018-02-18T18:52:21.613Z,11.57
2018-02-18T18:54:48.644Z,11.90
2018-02-18T18:57:14.989Z,11.63
2018-02-18T18:59:42.042Z,12.23
2018-02-18T19:02:08.332Z,13.90
2018-02-18T19:04:34.635Z,10.70
2018-02-18T19:07:01.252Z,10.77
2018-02-18T19:09:28.617Z,7.03
2018-02-18T19:11:54.927Z,11.27
2018-02-18T19:14:21.967Z,10.73
2018-02-18T19:16:49.018Z,8.70
2018-02-18T19:19:18.178Z,11.77
2018-02-18T19:21:44.462Z,9.57
2018-02-18T19:24:11.502Z,11.63
2018-02-18T19:26:37.858Z,11.27
2018-02-18T19:29:04.159Z,13.27
2018-02-18T19:31:31.312Z,10.80
2018-02-18T19:33:59.174Z,10.60
2018-02-18T19:36:26.259Z,16.30
2018-02-18T19:38:52.592Z,18.20
2018-02-18T19:41:18.919Z,11.37
2018-02-18T19:43:45.232Z,10.23
2018-02-18T19:46:11.535Z,12.53
2018-02-18T19:48:37.823Z,9.97
2018-02-18T19:51:05.206Z,12.17
2018-02-18T19:53:32.243Z,11.60
2018-02-18T19:55:58.557Z,11.13
2018-02-18T19:58:24.897Z,10.03
2018-02-18T20:00:51.249Z,12.33
2018-02-18T20:03:17.542Z,9.77
2018-02-18T20:05:43.880Z,13.20
2018-02-18T20:08:10.220Z,10.37
2018-02-18T20:10:36.542Z,9.70
2018-02-18T20:13:02.866Z,24.93
2018-02-18T20:15:29.174Z,17.57
2018-02-18T20:17:57.034Z,17.97
2018-02-18T20:20:24.129Z,13.50
2018-02-18T20:22:50.493Z,13.07
2018-02-18T20:25:16.902Z,17.00
2018-02-18T20:27:43.213Z,13.83
2018-02-18T20:30:09.535Z,9.43
2018-02-18T20:32:35.889Z,12.83
2018-02-18T20:35:02.277Z,10.53
2018-02-18T20:37:28.599Z,11.17
2018-02-18T20:39:55.644Z,10.10
2018-02-18T20:42:22.806Z,9.50
2018-02-18T20:44:49.877Z,10.53
2018-02-18T20:47:16.185Z,11.10
2018-02-18T20:49:42.627Z,13.03
2018-02-18T20:52:09.017Z,9.90
2018-02-18T20:54:35.345Z,15.47
2018-02-18T20:57:01.832Z,11.87
2018-02-18T20:59:28.132Z,13.17
2018-02-18T21:01:55.328Z,12.73
2018-02-18T21:04:21.622Z,13.17
2018-02-18T21:06:48.682Z,19.73
2018-02-18T21:09:14.963Z,18.13
2018-02-18T21:11:41.297Z,15.93
2018-02-18T21:14:07.584Z,22.90
2018-02-18T21:16:33.897Z,13.47
2018-02-18T21:19:00.238Z,17.63
2018-02-18T21:21:26.542Z,18.83
2018-02-18T21:23:52.801Z,17.20
2018-02-18T21:26:19.124Z,16.60
2018-02-18T21:28:46.139Z,14.70
2018-02-18T21:31:12.434Z,20.90
2018-02-18T21:33:38.762Z,25.30
2018-02-18T21:36:05.080Z,28.30
2018-02-18T21:38:31.356Z,19.87
2018-02-18T21:40:57.637Z,19.07
2018-02-18T21:43:23.918Z,21.40
2018-02-18T21:45:50.215Z,22.53
2018-02-18T21:48:16.543Z,23.87
2018-02-18T21:50:42.858Z,19.73
2018-02-18T21:53:09.171Z,21.67
2018-02-18T21:55:35.467Z,20.43
2018-02-18T21:58:01.802Z,25.40
2018-02-18T22:00:28.074Z,21.27
2018-02-18T22:02:54.439Z,23.13
2018-02-18T22:05:20.726Z,27.20
2018-02-18T22:07:47.826Z,23.97
2018-02-18T22:10:14.076Z,24.13
2018-02-18T22:12:40.354Z,23.80
2018-02-18T22:15:06.679Z,26.37
2018-02-18T22:17:32.935Z,25.83
2018-02-18T22:19:59.178Z,25.03
2018-02-18T22:22:25.456Z,28.33
2018-02-18T22:24:52.488Z,25.67
2018-02-18T22:27:18.782Z,30.80
2018-02-18T22:29:45.053Z,29.23
2018-02-18T22:32:12.043Z,28.07
2018-02-18T22:34:38.315Z,30.60
2018-02-18T22:37:04.568Z,29.23
2018-02-18T22:39:31.575Z,28.60
2018-02-18T22:41:58.537Z,32.50
2018-02-18T22:44:24.829Z,32.90
2018-02-18T22:46:53.784Z,28.07
2018-02-18T22:49:22.096Z,38.53
2018-02-18T22:51:48.387Z,29.60
2018-02-18T22:54:15.392Z,33.13
2018-02-18T22:56:42.400Z,31.70
2018-02-18T22:59:08.708Z,28.00
2018-02-18T23:01:42.974Z,28.17
2018-02-18T23:04:09.239Z,28.13
2018-02-18T23:06:35.522Z,30.07
2018-02-18T23:09:01.794Z,30.83
2018-02-18T23:11:28.140Z,29.90
2018-02-18T23:13:54.591Z,32.60
2018-02-18T23:16:21.674Z,32.53
2018-02-18T23:18:47.944Z,38.50
2018-02-18T23:21:14.232Z,33.20
2018-02-18T23:23:40.485Z,32.37
2018-02-18T23:26:06.797Z,34.10
2018-02-18T23:28:33.042Z,35.33
2018-02-18T23:30:59.336Z,32.00
2018-02-18T23:33:25.628Z,31.20
2018-02-18T23:35:51.873Z,35.97
2018-02-18T23:38:18.870Z,30.33
2018-02-18T23:40:45.125Z,35.90
2018-02-18T23:43:11.409Z,32.80
2018-02-18T23:45:37.683Z,31.60
2018-02-18T23:48:04.705Z,35.13
2018-02-18T23:50:30.964Z,33.83
2018-02-18T23:52:57.289Z,34.60
2018-02-18T23:55:23.521Z,32.90
2018-02-18T23:57:49.789Z,35.63
